»·PEaware :: ASA570 KSFO-KSNA

ASA570 :: KSFO-KSNA

FLIGHT INFORMATION

Flight Status: Arrived
Operator:
Alaska Airlines
More flights by this operator :: More flights under this callsign
Pilot: Andrew C. (28419)
Aircraft: BOEING 737-800
(B738)
More flights by this aircraft type
Origin: KSFO San Francisco Intl
United States
Destination: KSNA John Wayne-Orange Co
United States
More flights between these airports :: More routes between these airports
Route: +OFFSH2 MCKEY TILLT TILLT2
File this flight plan on PilotEdge
Remarks: RMK / SIMBRIEF
Altitude:
(Current/Filed)
37,000ft
Speed:
(Current/Filed)
460kts
Departed: 19-Sep-20 02:25 PM
Arrived: 19-Sep-20 03:27 PM
Distance/Time
Traveled:
323nm/1:01
Distance/Time
To Go:
Arrived

Flight Plot

Page will automatically refresh every two minutes.

Flight plan parsing failed; only flown route is shown


Map Options




Map Legend


Flown Route
Filed Route
Departure Airport
Arrival Airport
Navaid (VOR, NDB)
Fix

Horizontal Profiles

Position Reports

Time Latitude Longitude Heading Altitude Ground
Speed
19-Sep-20 14:12 37.616740 -122.381719 21 19ft 0kts
19-Sep-20 14:13 37.616740 -122.381719 21 19ft 0kts
19-Sep-20 14:14 37.616314 -122.381931 25 19ft 2kts
19-Sep-20 14:15 37.616239 -122.382437 119 19ft 0kts
19-Sep-20 14:16 37.616239 -122.382436 119 19ft 0kts
19-Sep-20 14:17 37.615950 -122.381716 116 19ft 12kts
19-Sep-20 14:18 37.612129 -122.382608 208 19ft 17kts
19-Sep-20 14:19 37.609082 -122.383471 118 19ft 0kts
19-Sep-20 14:20 37.609082 -122.383471 118 19ft 0kts
19-Sep-20 14:21 37.609082 -122.383471 118 19ft 0kts
19-Sep-20 14:22 37.609082 -122.383471 118 19ft 0kts
19-Sep-20 14:23 37.608883 -122.382285 21 19ft 0kts
19-Sep-20 14:24 37.635589 -122.365256 16 962ft 166kts
19-Sep-20 14:25 37.694278 -122.369731 356 2823ft 259kts
19-Sep-20 14:26 37.720633 -122.435017 229 6179ft 278kts
19-Sep-20 14:27 37.647601 -122.468633 209 9439ft 292kts
19-Sep-20 14:28 37.574626 -122.532816 218 11251ft 352kts
19-Sep-20 14:29 37.493936 -122.607608 219 14246ft 366kts
19-Sep-20 14:30 37.402784 -122.667013 190 17097ft 389kts
19-Sep-20 14:31 37.291728 -122.649966 171 18992ft 415kts
19-Sep-20 14:32 37.180874 -122.623660 171 19024ft 405kts
19-Sep-20 14:33 37.069142 -122.590485 154 21305ft 423kts
19-Sep-20 14:34 36.973275 -122.499888 143 23418ft 440kts
19-Sep-20 14:35 36.875979 -122.403017 143 25381ft 452kts
19-Sep-20 14:36 36.777507 -122.305071 143 27192ft 460kts
19-Sep-20 14:37 36.676216 -122.204408 143 28815ft 469kts
19-Sep-20 14:38 36.574084 -122.103043 143 30673ft 467kts
19-Sep-20 14:39 36.472958 -122.002796 143 32620ft 460kts
19-Sep-20 14:40 36.373511 -121.904367 144 34316ft 454kts
19-Sep-20 14:41 36.274526 -121.806543 144 35735ft 453kts
19-Sep-20 14:42 36.175626 -121.708970 144 36942ft 453kts
19-Sep-20 14:43 36.074934 -121.609849 144 37045ft 463kts
19-Sep-20 14:44 35.974500 -121.511074 144 37039ft 459kts
19-Sep-20 14:45 35.874533 -121.412904 144 36989ft 460kts
19-Sep-20 14:46 35.774065 -121.314359 145 36963ft 460kts
19-Sep-20 14:47 35.673621 -121.215938 145 36963ft 461kts
19-Sep-20 14:48 35.572917 -121.117412 145 36963ft 462kts
19-Sep-20 14:49 35.472141 -121.018987 145 36958ft 462kts
19-Sep-20 14:50 35.374161 -120.915561 141 36934ft 464kts
19-Sep-20 14:51 35.277442 -120.810513 142 36926ft 465kts
19-Sep-20 14:52 35.180299 -120.705703 142 36926ft 466kts
19-Sep-20 14:53 35.083188 -120.601373 142 36926ft 465kts
19-Sep-20 14:54 34.979113 -120.508777 149 36926ft 462kts
19-Sep-20 14:55 34.873065 -120.422131 149 36926ft 463kts
19-Sep-20 14:56 34.766101 -120.335481 150 36947ft 463kts
19-Sep-20 14:57 34.658822 -120.249105 150 36963ft 463kts
19-Sep-20 14:58 34.551060 -120.163037 150 36972ft 463kts
19-Sep-20 14:59 34.443379 -120.077121 150 36985ft 463kts
19-Sep-20 15:00 34.335329 -119.991112 150 36998ft 463kts
19-Sep-20 15:01 34.227008 -119.905163 149 35843ft 472kts
19-Sep-20 15:02 34.121125 -119.821249 147 32715ft 442kts
19-Sep-20 15:03 34.038444 -119.711328 122 29575ft 452kts
19-Sep-20 15:04 33.974344 -119.583952 121 27373ft 436kts
19-Sep-20 15:05 33.913003 -119.461916 121 25129ft 420kts
19-Sep-20 15:06 33.854920 -119.345043 120 23316ft 397kts
19-Sep-20 15:07 33.799603 -119.232766 120 21294ft 384kts
19-Sep-20 15:08 33.745888 -119.124014 120 19295ft 372kts
19-Sep-20 15:09 33.693489 -119.018426 120 17329ft 361kts
19-Sep-20 15:10 33.642489 -118.915853 121 15421ft 352kts
19-Sep-20 15:11 33.592873 -118.816355 122 13525ft 344kts
19-Sep-20 15:12 33.561313 -118.709790 102 11643ft 340kts
19-Sep-20 15:13 33.543910 -118.601820 102 10493ft 312kts
19-Sep-20 15:14 33.557435 -118.504801 71 9549ft 293kts
19-Sep-20 15:15 33.582719 -118.413284 71 8388ft 286kts
19-Sep-20 15:16 33.606804 -118.324359 73 7461ft 281kts
19-Sep-20 15:17 33.628132 -118.235162 73 6344ft 277kts
19-Sep-20 15:18 33.649139 -118.146860 73 5653ft 271kts
19-Sep-20 15:19 33.669314 -118.061845 73 5017ft 248kts
19-Sep-20 15:20 33.687452 -117.985080 74 5010ft 239kts
19-Sep-20 15:21 33.725468 -117.925784 23 4460ft 239kts
19-Sep-20 15:22 33.782775 -117.890025 46 3192ft 220kts
19-Sep-20 15:23 33.770267 -117.839111 145 2089ft 178kts
19-Sep-20 15:24 33.731500 -117.834117 200 1111ft 131kts
19-Sep-20 15:25 33.698652 -117.854134 207 404ft 125kts
19-Sep-20 15:26 33.673908 -117.869954 206 66ft 26kts
19-Sep-20 15:27 33.669498 -117.870516 42 66ft 10kts
19-Sep-20 15:28 33.671608 -117.868468 31 66ft 12kts
19-Sep-20 15:29 33.674801 -117.866052 26 66ft 22kts
19-Sep-20 15:30 33.675728 -117.864653 118 66ft 0kts

Navigation Log

Ident Type
Flight plan parsing failed, navigation log unavailable